sensor_id;sensor_type;location;lat;lon;timestamp;P1;durP1;ratioP1;P2;durP2;ratioP2
18076;SDS011;9165;45.714;11.362;2023-04-28T00:01:15;4.23;;;3.17;;
18076;SDS011;9165;45.714;11.362;2023-04-28T00:03:41;3.47;;;3.07;;
18076;SDS011;9165;45.714;11.362;2023-04-28T00:06:08;7.30;;;2.93;;
18076;SDS011;9165;45.714;11.362;2023-04-28T00:08:37;3.23;;;2.93;;
18076;SDS011;9165;45.714;11.362;2023-04-28T00:11:03;5.87;;;3.37;;
18076;SDS011;9165;45.714;11.362;2023-04-28T00:13:34;4.43;;;3.67;;
18076;SDS011;9165;45.714;11.362;2023-04-28T00:16:00;3.70;;;3.23;;
18076;SDS011;9165;45.714;11.362;2023-04-28T00:18:27;3.77;;;3.17;;
18076;SDS011;9165;45.714;11.362;2023-04-28T00:20:54;8.13;;;3.60;;
18076;SDS011;9165;45.714;11.362;2023-04-28T00:23:20;3.43;;;3.13;;
18076;SDS011;9165;45.714;11.362;2023-04-28T00:25:51;4.20;;;3.03;;
18076;SDS011;9165;45.714;11.362;2023-04-28T00:28:17;9.97;;;3.70;;
18076;SDS011;9165;45.714;11.362;2023-04-28T00:30:44;5.10;;;3.27;;
18076;SDS011;9165;45.714;11.362;2023-04-28T00:33:10;8.23;;;3.60;;
18076;SDS011;9165;45.714;11.362;2023-04-28T00:35:37;10.40;;;5.30;;
18076;SDS011;9165;45.714;11.362;2023-04-28T00:38:04;6.67;;;4.30;;
18076;SDS011;9165;45.714;11.362;2023-04-28T00:40:33;5.73;;;3.90;;
18076;SDS011;9165;45.714;11.362;2023-04-28T00:43:02;7.83;;;4.93;;
18076;SDS011;9165;45.714;11.362;2023-04-28T00:45:29;8.20;;;5.87;;
18076;SDS011;9165;45.714;11.362;2023-04-28T00:47:56;9.87;;;5.40;;
18076;SDS011;9165;45.714;11.362;2023-04-28T00:50:23;10.23;;;5.73;;
18076;SDS011;9165;45.714;11.362;2023-04-28T00:52:51;7.43;;;5.47;;
18076;SDS011;9165;45.714;11.362;2023-04-28T00:55:18;8.13;;;4.90;;
18076;SDS011;9165;45.714;11.362;2023-04-28T00:57:44;5.93;;;4.37;;
18076;SDS011;9165;45.714;11.362;2023-04-28T01:00:13;5.23;;;3.63;;
18076;SDS011;9165;45.714;11.362;2023-04-28T01:02:40;5.67;;;3.57;;
18076;SDS011;9165;45.714;11.362;2023-04-28T01:05:07;14.83;;;4.00;;
18076;SDS011;9165;45.714;11.362;2023-04-28T01:07:33;4.37;;;3.57;;
18076;SDS011;9165;45.714;11.362;2023-04-28T01:10:01;6.63;;;4.53;;
18076;SDS011;9165;45.714;11.362;2023-04-28T01:12:28;4.57;;;3.33;;
18076;SDS011;9165;45.714;11.362;2023-04-28T01:14:54;5.50;;;3.80;;
18076;SDS011;9165;45.714;11.362;2023-04-28T01:17:23;5.53;;;4.00;;
18076;SDS011;9165;45.714;11.362;2023-04-28T01:19:55;5.60;;;4.00;;
18076;SDS011;9165;45.714;11.362;2023-04-28T01:22:36;7.67;;;3.87;;
18076;SDS011;9165;45.714;11.362;2023-04-28T01:25:12;6.13;;;3.77;;
18076;SDS011;9165;45.714;11.362;2023-04-28T01:27:42;3.77;;;3.37;;
18076;SDS011;9165;45.714;11.362;2023-04-28T01:33:21;4.40;;;3.67;;
18076;SDS011;9165;45.714;11.362;2023-04-28T01:44:49;4.97;;;3.90;;
18076;SDS011;9165;45.714;11.362;2023-04-28T01:47:35;5.30;;;3.77;;
18076;SDS011;9165;45.714;11.362;2023-04-28T01:50:09;5.73;;;4.13;;
18076;SDS011;9165;45.714;11.362;2023-04-28T01:52:37;6.37;;;4.10;;
18076;SDS011;9165;45.714;11.362;2023-04-28T01:55:07;5.33;;;3.73;;
18076;SDS011;9165;45.714;11.362;2023-04-28T01:57:41;9.23;;;4.00;;
18076;SDS011;9165;45.714;11.362;2023-04-28T02:00:24;6.67;;;3.90;;
18076;SDS011;9165;45.714;11.362;2023-04-28T02:02:51;8.27;;;4.73;;
18076;SDS011;9165;45.714;11.362;2023-04-28T02:05:19;6.03;;;4.40;;
18076;SDS011;9165;45.714;11.362;2023-04-28T02:07:46;6.73;;;4.43;;
18076;SDS011;9165;45.714;11.362;2023-04-28T02:10:13;5.80;;;3.80;;
18076;SDS011;9165;45.714;11.362;2023-04-28T02:12:40;6.67;;;3.93;;
18076;SDS011;9165;45.714;11.362;2023-04-28T02:15:21;6.20;;;4.70;;
18076;SDS011;9165;45.714;11.362;2023-04-28T02:17:49;5.50;;;4.53;;
18076;SDS011;9165;45.714;11.362;2023-04-28T02:20:17;5.47;;;3.90;;
18076;SDS011;9165;45.714;11.362;2023-04-28T02:22:44;7.83;;;4.83;;
18076;SDS011;9165;45.714;11.362;2023-04-28T02:25:11;6.63;;;4.27;;
18076;SDS011;9165;45.714;11.362;2023-04-28T02:27:37;8.03;;;4.40;;
18076;SDS011;9165;45.714;11.362;2023-04-28T02:30:04;6.13;;;4.47;;
18076;SDS011;9165;45.714;11.362;2023-04-28T02:32:31;5.83;;;4.30;;
18076;SDS011;9165;45.714;11.362;2023-04-28T02:34:59;6.33;;;4.63;;
18076;SDS011;9165;45.714;11.362;2023-04-28T02:37:26;4.70;;;3.97;;
18076;SDS011;9165;45.714;11.362;2023-04-28T02:39:53;8.93;;;4.67;;
18076;SDS011;9165;45.714;11.362;2023-04-28T02:42:19;6.27;;;4.17;;
18076;SDS011;9165;45.714;11.362;2023-04-28T02:44:46;6.03;;;4.70;;
18076;SDS011;9165;45.714;11.362;2023-04-28T02:47:13;4.80;;;4.13;;
18076;SDS011;9165;45.714;11.362;2023-04-28T02:49:40;6.17;;;4.43;;
18076;SDS011;9165;45.714;11.362;2023-04-28T02:52:08;4.93;;;4.43;;
18076;SDS011;9165;45.714;11.362;2023-04-28T02:54:35;6.50;;;4.53;;
18076;SDS011;9165;45.714;11.362;2023-04-28T02:57:01;6.57;;;4.83;;
18076;SDS011;9165;45.714;11.362;2023-04-28T02:59:29;5.13;;;4.30;;
18076;SDS011;9165;45.714;11.362;2023-04-28T03:01:55;7.17;;;3.50;;
18076;SDS011;9165;45.714;11.362;2023-04-28T03:04:22;7.87;;;4.67;;
18076;SDS011;9165;45.714;11.362;2023-04-28T03:06:49;5.73;;;3.90;;
18076;SDS011;9165;45.714;11.362;2023-04-28T03:09:17;6.57;;;4.53;;
18076;SDS011;9165;45.714;11.362;2023-04-28T03:11:44;5.73;;;4.27;;
18076;SDS011;9165;45.714;11.362;2023-04-28T03:14:10;4.93;;;4.33;;
18076;SDS011;9165;45.714;11.362;2023-04-28T03:16:37;5.40;;;4.07;;
18076;SDS011;9165;45.714;11.362;2023-04-28T03:19:04;6.10;;;3.53;;
18076;SDS011;9165;45.714;11.362;2023-04-28T03:21:30;6.13;;;4.40;;
18076;SDS011;9165;45.714;11.362;2023-04-28T03:23:57;7.27;;;4.13;;
18076;SDS011;9165;45.714;11.362;2023-04-28T03:26:25;5.67;;;4.40;;
18076;SDS011;9165;45.714;11.362;2023-04-28T03:28:51;5.33;;;4.07;;
18076;SDS011;9165;45.714;11.362;2023-04-28T03:31:18;5.50;;;4.10;;
18076;SDS011;9165;45.714;11.362;2023-04-28T03:33:45;5.40;;;4.03;;
18076;SDS011;9165;45.714;11.362;2023-04-28T03:36:12;6.03;;;4.10;;
18076;SDS011;9165;45.714;11.362;2023-04-28T03:38:38;6.47;;;4.00;;
18076;SDS011;9165;45.714;11.362;2023-04-28T03:41:05;6.37;;;4.30;;
18076;SDS011;9165;45.714;11.362;2023-04-28T03:43:33;5.60;;;4.33;;
18076;SDS011;9165;45.714;11.362;2023-04-28T03:46:01;7.60;;;4.40;;
18076;SDS011;9165;45.714;11.362;2023-04-28T03:48:28;4.87;;;4.17;;
18076;SDS011;9165;45.714;11.362;2023-04-28T03:50:54;5.93;;;4.10;;
18076;SDS011;9165;45.714;11.362;2023-04-28T03:53:21;7.80;;;4.50;;
18076;SDS011;9165;45.714;11.362;2023-04-28T03:55:48;4.40;;;3.83;;
18076;SDS011;9165;45.714;11.362;2023-04-28T03:58:15;5.57;;;4.10;;
18076;SDS011;9165;45.714;11.362;2023-04-28T04:00:43;4.23;;;3.83;;
18076;SDS011;9165;45.714;11.362;2023-04-28T04:03:10;4.93;;;3.70;;
18076;SDS011;9165;45.714;11.362;2023-04-28T04:05:38;6.70;;;4.10;;
18076;SDS011;9165;45.714;11.362;2023-04-28T04:08:05;7.87;;;4.23;;
18076;SDS011;9165;45.714;11.362;2023-04-28T04:10:31;7.47;;;4.23;;
18076;SDS011;9165;45.714;11.362;2023-04-28T04:12:58;4.37;;;3.47;;
18076;SDS011;9165;45.714;11.362;2023-04-28T04:15:24;4.80;;;3.90;;
18076;SDS011;9165;45.714;11.362;2023-04-28T04:17:52;7.67;;;4.50;;
18076;SDS011;9165;45.714;11.362;2023-04-28T04:20:21;6.17;;;4.23;;
18076;SDS011;9165;45.714;11.362;2023-04-28T04:22:47;8.13;;;4.20;;
18076;SDS011;9165;45.714;11.362;2023-04-28T04:25:14;8.67;;;4.33;;
18076;SDS011;9165;45.714;11.362;2023-04-28T04:27:41;5.17;;;4.13;;
18076;SDS011;9165;45.714;11.362;2023-04-28T04:30:08;5.73;;;3.77;;
18076;SDS011;9165;45.714;11.362;2023-04-28T04:32:34;5.97;;;4.37;;
18076;SDS011;9165;45.714;11.362;2023-04-28T04:35:02;7.30;;;4.60;;
18076;SDS011;9165;45.714;11.362;2023-04-28T04:37:29;5.07;;;4.13;;
18076;SDS011;9165;45.714;11.362;2023-04-28T04:39:56;9.13;;;4.33;;
18076;SDS011;9165;45.714;11.362;2023-04-28T04:42:22;5.57;;;4.13;;
18076;SDS011;9165;45.714;11.362;2023-04-28T04:44:49;6.67;;;4.33;;
18076;SDS011;9165;45.714;11.362;2023-04-28T04:47:15;7.83;;;4.13;;
18076;SDS011;9165;45.714;11.362;2023-04-28T04:49:43;6.53;;;4.73;;
18076;SDS011;9165;45.714;11.362;2023-04-28T04:52:11;5.80;;;4.10;;
18076;SDS011;9165;45.714;11.362;2023-04-28T04:54:37;6.00;;;4.03;;
18076;SDS011;9165;45.714;11.362;2023-04-28T04:57:04;10.03;;;4.57;;
18076;SDS011;9165;45.714;11.362;2023-04-28T04:59:30;7.53;;;4.67;;
18076;SDS011;9165;45.714;11.362;2023-04-28T05:01:57;11.53;;;5.43;;
18076;SDS011;9165;45.714;11.362;2023-04-28T05:04:23;5.77;;;4.57;;
18076;SDS011;9165;45.714;11.362;2023-04-28T05:06:50;6.17;;;4.40;;
18076;SDS011;9165;45.714;11.362;2023-04-28T05:09:18;6.83;;;5.17;;
18076;SDS011;9165;45.714;11.362;2023-04-28T05:11:45;7.00;;;4.37;;
18076;SDS011;9165;45.714;11.362;2023-04-28T05:14:12;7.73;;;4.73;;
18076;SDS011;9165;45.714;11.362;2023-04-28T05:16:38;8.10;;;4.23;;
18076;SDS011;9165;45.714;11.362;2023-04-28T05:19:05;6.80;;;4.73;;
18076;SDS011;9165;45.714;11.362;2023-04-28T05:21:31;10.20;;;4.90;;
18076;SDS011;9165;45.714;11.362;2023-04-28T05:23:58;7.60;;;5.03;;
18076;SDS011;9165;45.714;11.362;2023-04-28T05:26:26;7.10;;;5.03;;
18076;SDS011;9165;45.714;11.362;2023-04-28T05:28:53;9.23;;;5.10;;
18076;SDS011;9165;45.714;11.362;2023-04-28T05:31:19;7.13;;;5.10;;
18076;SDS011;9165;45.714;11.362;2023-04-28T05:33:46;9.27;;;5.00;;
18076;SDS011;9165;45.714;11.362;2023-04-28T05:36:15;9.53;;;5.50;;
18076;SDS011;9165;45.714;11.362;2023-04-28T05:38:47;6.13;;;4.30;;
18076;SDS011;9165;45.714;11.362;2023-04-28T05:41:14;6.30;;;4.60;;
18076;SDS011;9165;45.714;11.362;2023-04-28T05:43:44;7.97;;;4.60;;
18076;SDS011;9165;45.714;11.362;2023-04-28T05:46:15;7.70;;;4.63;;
18076;SDS011;9165;45.714;11.362;2023-04-28T05:48:42;9.33;;;4.70;;
18076;SDS011;9165;45.714;11.362;2023-04-28T05:51:09;5.43;;;4.20;;
18076;SDS011;9165;45.714;11.362;2023-04-28T05:53:36;6.30;;;4.97;;
18076;SDS011;9165;45.714;11.362;2023-04-28T05:56:03;9.47;;;4.17;;
18076;SDS011;9165;45.714;11.362;2023-04-28T05:58:30;11.60;;;5.83;;
18076;SDS011;9165;45.714;11.362;2023-04-28T06:00:58;8.33;;;5.23;;
18076;SDS011;9165;45.714;11.362;2023-04-28T06:03:25;6.60;;;4.90;;
18076;SDS011;9165;45.714;11.362;2023-04-28T06:05:51;6.23;;;4.30;;
18076;SDS011;9165;45.714;11.362;2023-04-28T06:08:18;4.67;;;4.10;;
18076;SDS011;9165;45.714;11.362;2023-04-28T06:10:45;9.60;;;4.83;;
18076;SDS011;9165;45.714;11.362;2023-04-28T06:13:11;8.20;;;4.63;;
18076;SDS011;9165;45.714;11.362;2023-04-28T06:15:38;7.13;;;4.97;;
18076;SDS011;9165;45.714;11.362;2023-04-28T06:18:06;10.87;;;5.27;;
18076;SDS011;9165;45.714;11.362;2023-04-28T06:20:33;6.70;;;5.57;;
18076;SDS011;9165;45.714;11.362;2023-04-28T06:23:00;9.23;;;5.60;;
18076;SDS011;9165;45.714;11.362;2023-04-28T06:25:27;5.60;;;4.97;;
18076;SDS011;9165;45.714;11.362;2023-04-28T06:27:54;5.73;;;4.77;;
18076;SDS011;9165;45.714;11.362;2023-04-28T06:30:21;7.83;;;4.83;;
18076;SDS011;9165;45.714;11.362;2023-04-28T06:32:48;6.80;;;4.47;;
18076;SDS011;9165;45.714;11.362;2023-04-28T06:35:16;6.93;;;4.37;;
18076;SDS011;9165;45.714;11.362;2023-04-28T06:37:43;8.20;;;5.10;;
18076;SDS011;9165;45.714;11.362;2023-04-28T06:40:10;6.80;;;4.93;;
18076;SDS011;9165;45.714;11.362;2023-04-28T06:42:36;7.63;;;4.43;;
18076;SDS011;9165;45.714;11.362;2023-04-28T06:45:03;7.83;;;5.00;;
18076;SDS011;9165;45.714;11.362;2023-04-28T06:47:30;6.13;;;4.90;;
18076;SDS011;9165;45.714;11.362;2023-04-28T06:49:56;8.93;;;5.43;;
18076;SDS011;9165;45.714;11.362;2023-04-28T06:52:24;5.03;;;4.20;;
18076;SDS011;9165;45.714;11.362;2023-04-28T06:54:53;8.57;;;4.57;;
18076;SDS011;9165;45.714;11.362;2023-04-28T06:57:19;7.10;;;4.87;;
18076;SDS011;9165;45.714;11.362;2023-04-28T06:59:46;7.07;;;4.73;;
18076;SDS011;9165;45.714;11.362;2023-04-28T07:02:13;5.93;;;4.83;;
18076;SDS011;9165;45.714;11.362;2023-04-28T07:04:39;6.03;;;4.53;;
18076;SDS011;9165;45.714;11.362;2023-04-28T07:07:06;5.03;;;4.27;;
18076;SDS011;9165;45.714;11.362;2023-04-28T07:09:35;12.70;;;4.17;;
18076;SDS011;9165;45.714;11.362;2023-04-28T07:12:01;5.97;;;4.13;;
18076;SDS011;9165;45.714;11.362;2023-04-28T07:14:28;4.43;;;3.70;;
18076;SDS011;9165;45.714;11.362;2023-04-28T07:16:55;7.03;;;4.53;;
18076;SDS011;9165;45.714;11.362;2023-04-28T07:19:21;4.93;;;4.30;;
18076;SDS011;9165;45.714;11.362;2023-04-28T07:21:48;7.63;;;4.70;;
18076;SDS011;9165;45.714;11.362;2023-04-28T07:24:15;6.70;;;4.57;;
18076;SDS011;9165;45.714;11.362;2023-04-28T07:26:43;9.33;;;5.37;;
18076;SDS011;9165;45.714;11.362;2023-04-28T07:29:10;7.77;;;4.47;;
18076;SDS011;9165;45.714;11.362;2023-04-28T07:31:37;5.40;;;4.13;;
18076;SDS011;9165;45.714;11.362;2023-04-28T07:34:04;6.00;;;4.70;;
18076;SDS011;9165;45.714;11.362;2023-04-28T07:36:31;5.67;;;4.80;;
18076;SDS011;9165;45.714;11.362;2023-04-28T07:38:58;5.77;;;4.60;;
18076;SDS011;9165;45.714;11.362;2023-04-28T07:41:25;5.40;;;4.07;;
18076;SDS011;9165;45.714;11.362;2023-04-28T07:43:54;6.77;;;4.70;;
18076;SDS011;9165;45.714;11.362;2023-04-28T07:46:21;8.20;;;3.70;;
18076;SDS011;9165;45.714;11.362;2023-04-28T07:48:47;5.90;;;4.40;;
18076;SDS011;9165;45.714;11.362;2023-04-28T07:51:14;5.23;;;4.20;;
18076;SDS011;9165;45.714;11.362;2023-04-28T07:53:41;6.97;;;4.33;;
18076;SDS011;9165;45.714;11.362;2023-04-28T07:56:08;5.50;;;4.70;;
18076;SDS011;9165;45.714;11.362;2023-04-28T07:58:36;7.67;;;4.77;;
18076;SDS011;9165;45.714;11.362;2023-04-28T08:01:04;9.47;;;4.40;;
18076;SDS011;9165;45.714;11.362;2023-04-28T08:03:31;7.80;;;4.60;;
18076;SDS011;9165;45.714;11.362;2023-04-28T08:05:58;6.50;;;5.23;;
18076;SDS011;9165;45.714;11.362;2023-04-28T08:08:28;7.97;;;4.23;;
18076;SDS011;9165;45.714;11.362;2023-04-28T08:10:56;5.03;;;4.53;;
18076;SDS011;9165;45.714;11.362;2023-04-28T08:13:23;6.20;;;5.20;;
18076;SDS011;9165;45.714;11.362;2023-04-28T08:15:49;7.33;;;4.30;;
18076;SDS011;9165;45.714;11.362;2023-04-28T08:18:18;6.53;;;4.60;;
18076;SDS011;9165;45.714;11.362;2023-04-28T08:20:44;9.13;;;5.07;;
18076;SDS011;9165;45.714;11.362;2023-04-28T08:23:11;6.30;;;4.80;;
18076;SDS011;9165;45.714;11.362;2023-04-28T08:25:38;12.20;;;4.90;;
18076;SDS011;9165;45.714;11.362;2023-04-28T08:28:04;6.40;;;4.73;;
18076;SDS011;9165;45.714;11.362;2023-04-28T08:30:32;5.83;;;4.73;;
18076;SDS011;9165;45.714;11.362;2023-04-28T08:32:59;5.73;;;4.60;;
18076;SDS011;9165;45.714;11.362;2023-04-28T08:35:27;6.27;;;5.00;;
18076;SDS011;9165;45.714;11.362;2023-04-28T08:37:55;5.43;;;4.70;;
18076;SDS011;9165;45.714;11.362;2023-04-28T08:40:21;6.43;;;5.13;;
18076;SDS011;9165;45.714;11.362;2023-04-28T08:42:48;7.77;;;4.57;;
18076;SDS011;9165;45.714;11.362;2023-04-28T08:45:15;6.77;;;5.23;;
18076;SDS011;9165;45.714;11.362;2023-04-28T08:47:42;5.90;;;4.30;;
18076;SDS011;9165;45.714;11.362;2023-04-28T08:50:14;9.93;;;4.60;;
18076;SDS011;9165;45.714;11.362;2023-04-28T08:52:42;8.20;;;4.63;;
18076;SDS011;9165;45.714;11.362;2023-04-28T08:55:10;7.90;;;4.67;;
18076;SDS011;9165;45.714;11.362;2023-04-28T08:57:37;11.67;;;5.83;;
18076;SDS011;9165;45.714;11.362;2023-04-28T09:00:05;8.13;;;5.03;;
18076;SDS011;9165;45.714;11.362;2023-04-28T09:02:31;12.97;;;6.30;;
18076;SDS011;9165;45.714;11.362;2023-04-28T09:04:58;10.37;;;6.60;;
18076;SDS011;9165;45.714;11.362;2023-04-28T09:07:25;7.57;;;5.33;;
18076;SDS011;9165;45.714;11.362;2023-04-28T09:10:04;16.23;;;5.87;;
18076;SDS011;9165;45.714;11.362;2023-04-28T09:12:40;11.43;;;5.43;;
18076;SDS011;9165;45.714;11.362;2023-04-28T09:15:07;6.90;;;5.03;;
18076;SDS011;9165;45.714;11.362;2023-04-28T09:17:36;6.63;;;4.83;;
18076;SDS011;9165;45.714;11.362;2023-04-28T09:20:18;7.30;;;4.87;;
18076;SDS011;9165;45.714;11.362;2023-04-28T09:22:44;7.33;;;5.57;;
18076;SDS011;9165;45.714;11.362;2023-04-28T09:25:13;8.30;;;5.07;;
18076;SDS011;9165;45.714;11.362;2023-04-28T09:27:40;8.70;;;4.50;;
18076;SDS011;9165;45.714;11.362;2023-04-28T09:30:07;5.90;;;5.13;;
18076;SDS011;9165;45.714;11.362;2023-04-28T09:32:34;14.50;;;5.43;;
18076;SDS011;9165;45.714;11.362;2023-04-28T09:35:01;7.50;;;5.40;;
18076;SDS011;9165;45.714;11.362;2023-04-28T09:37:29;7.73;;;5.30;;
18076;SDS011;9165;45.714;11.362;2023-04-28T09:39:56;6.20;;;5.00;;
18076;SDS011;9165;45.714;11.362;2023-04-28T09:42:31;15.17;;;5.43;;
18076;SDS011;9165;45.714;11.362;2023-04-28T09:44:58;7.03;;;5.23;;
18076;SDS011;9165;45.714;11.362;2023-04-28T09:47:26;6.90;;;4.77;;
18076;SDS011;9165;45.714;11.362;2023-04-28T09:49:53;7.70;;;5.17;;
18076;SDS011;9165;45.714;11.362;2023-04-28T09:52:21;6.33;;;4.90;;
18076;SDS011;9165;45.714;11.362;2023-04-28T09:54:48;12.13;;;5.70;;
18076;SDS011;9165;45.714;11.362;2023-04-28T09:57:15;5.73;;;4.33;;
18076;SDS011;9165;45.714;11.362;2023-04-28T09:59:46;6.53;;;3.67;;
18076;SDS011;9165;45.714;11.362;2023-04-28T10:02:13;4.53;;;3.87;;
18076;SDS011;9165;45.714;11.362;2023-04-28T10:04:40;12.10;;;4.77;;
18076;SDS011;9165;45.714;11.362;2023-04-28T10:07:08;7.80;;;4.43;;
18076;SDS011;9165;45.714;11.362;2023-04-28T10:09:35;10.30;;;5.20;;
18076;SDS011;9165;45.714;11.362;2023-04-28T10:12:03;8.33;;;5.50;;
18076;SDS011;9165;45.714;11.362;2023-04-28T10:14:30;7.03;;;4.77;;
18076;SDS011;9165;45.714;11.362;2023-04-28T10:17:00;7.90;;;5.17;;
18076;SDS011;9165;45.714;11.362;2023-04-28T10:19:28;6.77;;;4.37;;
18076;SDS011;9165;45.714;11.362;2023-04-28T10:21:57;6.23;;;4.97;;
18076;SDS011;9165;45.714;11.362;2023-04-28T10:24:28;6.87;;;4.60;;
18076;SDS011;9165;45.714;11.362;2023-04-28T10:27:03;8.07;;;4.13;;
18076;SDS011;9165;45.714;11.362;2023-04-28T10:29:30;6.03;;;3.90;;
18076;SDS011;9165;45.714;11.362;2023-04-28T10:32:27;10.43;;;4.73;;
18076;SDS011;9165;45.714;11.362;2023-04-28T10:40:30;6.00;;;3.73;;
18076;SDS011;9165;45.714;11.362;2023-04-28T10:42:57;4.47;;;2.87;;
18076;SDS011;9165;45.714;11.362;2023-04-28T10:48:11;5.60;;;2.97;;
18076;SDS011;9165;45.714;11.362;2023-04-28T10:50:38;3.23;;;1.83;;
18076;SDS011;9165;45.714;11.362;2023-04-28T10:53:26;5.47;;;2.20;;
18076;SDS011;9165;45.714;11.362;2023-04-28T10:56:15;5.00;;;3.50;;
18076;SDS011;9165;45.714;11.362;2023-04-28T10:58:43;7.17;;;3.97;;
18076;SDS011;9165;45.714;11.362;2023-04-28T11:01:26;6.30;;;3.37;;
18076;SDS011;9165;45.714;11.362;2023-04-28T11:03:55;5.37;;;3.20;;
18076;SDS011;9165;45.714;11.362;2023-04-28T11:06:32;4.83;;;2.90;;
18076;SDS011;9165;45.714;11.362;2023-04-28T11:09:00;5.40;;;3.23;;
18076;SDS011;9165;45.714;11.362;2023-04-28T11:11:28;6.47;;;2.87;;
18076;SDS011;9165;45.714;11.362;2023-04-28T11:13:55;3.40;;;2.50;;
18076;SDS011;9165;45.714;11.362;2023-04-28T11:16:47;3.07;;;2.57;;
18076;SDS011;9165;45.714;11.362;2023-04-28T11:19:15;3.00;;;2.00;;
18076;SDS011;9165;45.714;11.362;2023-04-28T11:21:49;3.20;;;1.60;;
18076;SDS011;9165;45.714;11.362;2023-04-28T11:24:16;3.60;;;1.70;;
18076;SDS011;9165;45.714;11.362;2023-04-28T11:26:43;2.33;;;1.60;;
18076;SDS011;9165;45.714;11.362;2023-04-28T11:29:10;5.23;;;2.20;;
18076;SDS011;9165;45.714;11.362;2023-04-28T11:31:38;5.17;;;2.37;;
18076;SDS011;9165;45.714;11.362;2023-04-28T11:34:05;6.43;;;3.27;;
18076;SDS011;9165;45.714;11.362;2023-04-28T11:36:34;4.37;;;2.60;;
18076;SDS011;9165;45.714;11.362;2023-04-28T11:39:02;4.77;;;2.80;;
18076;SDS011;9165;45.714;11.362;2023-04-28T11:41:31;4.80;;;2.83;;
18076;SDS011;9165;45.714;11.362;2023-04-28T11:43:58;3.00;;;2.17;;
18076;SDS011;9165;45.714;11.362;2023-04-28T11:46:25;5.10;;;2.67;;
18076;SDS011;9165;45.714;11.362;2023-04-28T11:49:01;4.30;;;2.77;;
18076;SDS011;9165;45.714;11.362;2023-04-28T11:51:29;5.83;;;2.57;;
18076;SDS011;9165;45.714;11.362;2023-04-28T11:53:58;5.03;;;3.13;;
18076;SDS011;9165;45.714;11.362;2023-04-28T11:56:24;3.87;;;2.37;;
18076;SDS011;9165;45.714;11.362;2023-04-28T11:58:58;2.77;;;1.93;;
18076;SDS011;9165;45.714;11.362;2023-04-28T12:01:25;3.67;;;2.40;;
18076;SDS011;9165;45.714;11.362;2023-04-28T12:03:52;3.90;;;2.30;;
18076;SDS011;9165;45.714;11.362;2023-04-28T12:06:19;4.30;;;2.60;;
18076;SDS011;9165;45.714;11.362;2023-04-28T12:08:45;5.40;;;2.50;;
18076;SDS011;9165;45.714;11.362;2023-04-28T12:11:13;3.93;;;2.60;;
18076;SDS011;9165;45.714;11.362;2023-04-28T12:13:42;5.00;;;3.23;;
18076;SDS011;9165;45.714;11.362;2023-04-28T12:16:08;4.57;;;3.33;;
18076;SDS011;9165;45.714;11.362;2023-04-28T12:18:35;5.87;;;3.40;;
18076;SDS011;9165;45.714;11.362;2023-04-28T12:21:03;3.90;;;3.00;;
18076;SDS011;9165;45.714;11.362;2023-04-28T12:23:30;4.67;;;3.97;;
18076;SDS011;9165;45.714;11.362;2023-04-28T12:25:57;5.00;;;3.50;;
18076;SDS011;9165;45.714;11.362;2023-04-28T12:28:34;6.47;;;3.70;;
18076;SDS011;9165;45.714;11.362;2023-04-28T12:31:02;9.40;;;4.03;;
18076;SDS011;9165;45.714;11.362;2023-04-28T12:33:29;5.40;;;3.73;;
18076;SDS011;9165;45.714;11.362;2023-04-28T12:35:55;5.67;;;3.70;;
18076;SDS011;9165;45.714;11.362;2023-04-28T12:38:22;4.43;;;3.83;;
18076;SDS011;9165;45.714;11.362;2023-04-28T12:40:49;4.87;;;3.80;;
18076;SDS011;9165;45.714;11.362;2023-04-28T12:43:15;6.33;;;3.80;;
18076;SDS011;9165;45.714;11.362;2023-04-28T12:45:44;5.00;;;3.37;;
18076;SDS011;9165;45.714;11.362;2023-04-28T12:48:10;5.20;;;3.73;;
18076;SDS011;9165;45.714;11.362;2023-04-28T12:50:37;4.63;;;3.10;;
18076;SDS011;9165;45.714;11.362;2023-04-28T12:53:03;6.33;;;3.73;;
18076;SDS011;9165;45.714;11.362;2023-04-28T12:55:30;4.83;;;3.77;;
18076;SDS011;9165;45.714;11.362;2023-04-28T12:57:57;5.70;;;3.60;;
18076;SDS011;9165;45.714;11.362;2023-04-28T13:00:23;4.30;;;3.60;;
18076;SDS011;9165;45.714;11.362;2023-04-28T13:02:51;4.87;;;3.20;;
18076;SDS011;9165;45.714;11.362;2023-04-28T13:05:18;4.60;;;4.10;;
18076;SDS011;9165;45.714;11.362;2023-04-28T13:07:45;5.83;;;4.23;;
18076;SDS011;9165;45.714;11.362;2023-04-28T13:10:11;4.00;;;3.30;;
18076;SDS011;9165;45.714;11.362;2023-04-28T13:12:38;5.40;;;3.30;;
18076;SDS011;9165;45.714;11.362;2023-04-28T13:15:05;4.33;;;3.23;;
18076;SDS011;9165;45.714;11.362;2023-04-28T13:17:32;3.97;;;3.53;;
18076;SDS011;9165;45.714;11.362;2023-04-28T13:20:00;5.77;;;3.33;;
18076;SDS011;9165;45.714;11.362;2023-04-28T13:22:28;6.53;;;3.77;;
18076;SDS011;9165;45.714;11.362;2023-04-28T13:24:54;5.10;;;3.33;;
18076;SDS011;9165;45.714;11.362;2023-04-28T13:27:21;4.03;;;2.83;;
18076;SDS011;9165;45.714;11.362;2023-04-28T13:29:48;5.13;;;3.53;;
18076;SDS011;9165;45.714;11.362;2023-04-28T13:32:14;5.70;;;3.77;;
18076;SDS011;9165;45.714;11.362;2023-04-28T13:34:41;4.30;;;3.50;;
18076;SDS011;9165;45.714;11.362;2023-04-28T13:37:09;5.70;;;3.40;;
18076;SDS011;9165;45.714;11.362;2023-04-28T13:39:35;4.38;;;3.50;;
18076;SDS011;9165;45.714;11.362;2023-04-28T13:42:02;5.07;;;2.95;;
18076;SDS011;9165;45.714;11.362;2023-04-28T13:44:29;6.85;;;3.10;;
18076;SDS011;9165;45.714;11.362;2023-04-28T13:46:56;4.85;;;3.22;;
18076;SDS011;9165;45.714;11.362;2023-04-28T13:49:23;3.88;;;3.35;;
18076;SDS011;9165;45.714;11.362;2023-04-28T13:51:49;4.22;;;3.45;;
18076;SDS011;9165;45.714;11.362;2023-04-28T13:54:17;6.30;;;4.22;;
18076;SDS011;9165;45.714;11.362;2023-04-28T13:56:44;6.28;;;4.22;;
18076;SDS011;9165;45.714;11.362;2023-04-28T13:59:10;6.50;;;4.13;;
18076;SDS011;9165;45.714;11.362;2023-04-28T14:01:39;5.40;;;4.13;;
18076;SDS011;9165;45.714;11.362;2023-04-28T14:04:05;4.53;;;3.53;;
18076;SDS011;9165;45.714;11.362;2023-04-28T14:06:32;7.25;;;4.03;;
18076;SDS011;9165;45.714;11.362;2023-04-28T14:08:58;9.65;;;4.93;;
18076;SDS011;9165;45.714;11.362;2023-04-28T14:11:26;7.35;;;4.40;;
18076;SDS011;9165;45.714;11.362;2023-04-28T14:13:53;4.15;;;3.63;;
18076;SDS011;9165;45.714;11.362;2023-04-28T14:16:20;8.43;;;4.28;;
18076;SDS011;9165;45.714;11.362;2023-04-28T14:18:46;5.30;;;4.28;;
18076;SDS011;9165;45.714;11.362;2023-04-28T14:21:13;5.45;;;4.18;;
18076;SDS011;9165;45.714;11.362;2023-04-28T14:23:39;5.85;;;3.78;;
18076;SDS011;9165;45.714;11.362;2023-04-28T14:26:06;4.15;;;3.60;;
18076;SDS011;9165;45.714;11.362;2023-04-28T14:28:34;6.43;;;3.70;;
18076;SDS011;9165;45.714;11.362;2023-04-28T14:31:02;5.07;;;3.58;;
18076;SDS011;9165;45.714;11.362;2023-04-28T14:33:30;4.43;;;3.22;;
18076;SDS011;9165;45.714;11.362;2023-04-28T14:35:56;4.60;;;3.88;;
18076;SDS011;9165;45.714;11.362;2023-04-28T14:38:23;6.75;;;3.70;;
18076;SDS011;9165;45.714;11.362;2023-04-28T14:40:50;4.80;;;3.88;;
18076;SDS011;9165;45.714;11.362;2023-04-28T14:43:16;6.72;;;4.50;;
18076;SDS011;9165;45.714;11.362;2023-04-28T14:45:44;4.82;;;4.32;;
18076;SDS011;9165;45.714;11.362;2023-04-28T14:48:14;6.25;;;4.72;;
18076;SDS011;9165;45.714;11.362;2023-04-28T14:50:41;6.05;;;5.45;;
18076;SDS011;9165;45.714;11.362;2023-04-28T14:53:08;6.75;;;5.13;;
18076;SDS011;9165;45.714;11.362;2023-04-28T14:55:35;7.70;;;4.70;;
18076;SDS011;9165;45.714;11.362;2023-04-28T14:58:01;6.13;;;4.40;;
18076;SDS011;9165;45.714;11.362;2023-04-28T15:00:28;6.25;;;4.22;;
18076;SDS011;9165;45.714;11.362;2023-04-28T15:02:56;6.00;;;4.30;;
18076;SDS011;9165;45.714;11.362;2023-04-28T15:05:23;6.43;;;4.95;;
18076;SDS011;9165;45.714;11.362;2023-04-28T15:07:49;8.35;;;4.47;;
18076;SDS011;9165;45.714;11.362;2023-04-28T15:10:16;6.20;;;5.13;;
18076;SDS011;9165;45.714;11.362;2023-04-28T15:12:43;6.47;;;5.10;;